Time;durP1;ratioP1;P1;durP2;ratioP2;P2;SDS_P1;SDS_P2;PMS_P1;PMS_P2;Temp;Humidity;BMP_temperature;BMP_pressure;BME280_temperature;BME280_humidity;BME280_pressure;Samples;Min_cycle;Max_cycle;Signal;HPM_P1;HPM_P2
2021/08/26 00:06:26;;;;;;;8.55;6.38;;;;;;;9.53;100.00;94856.34;5041718;28;20035;-56
2021/08/26 00:08:59;;;;;;;10.05;7.57;;;;;;;9.49;100.00;94847.25;5050839;28;20021;-57
2021/08/26 00:11:25;;;;;;;;;;;;;;;9.47;100.00;94852.06;5053781;28;20021;-55
2021/08/26 00:13:58;;;;;;;10.80;7.13;;;;;;;9.42;100.00;94842.16;5052488;28;19908;-55
2021/08/26 00:16:25;;;;;;;8.85;7.32;;;;;;;9.37;100.00;94833.31;5052062;28;20035;-53
2021/08/26 00:18:51;;;;;;;8.90;6.70;;;;;;;9.34;100.00;94834.66;5051970;28;20112;-57
2021/08/26 00:21:17;;;;;;;8.50;7.03;;;;;;;9.32;100.00;94830.63;5050788;28;20033;-57
2021/08/26 00:23:45;;;;;;;8.18;6.72;;;;;;;9.27;100.00;94821.53;5051845;28;20384;-57
2021/08/26 00:26:13;;;;;;;11.70;7.40;;;;;;;9.25;100.00;94812.97;5052395;28;20468;-58
2021/08/26 00:28:41;;;;;;;7.50;6.35;;;;;;;9.18;100.00;94819.63;5050420;28;20121;-54
2021/08/26 00:31:08;;;;;;;8.65;6.55;;;;;;;9.21;100.00;94822.56;5050570;28;20017;-56
2021/08/26 00:33:34;;;;;;;10.18;7.20;;;;;;;9.22;100.00;94821.50;5051785;28;20032;-56
2021/08/26 00:36:03;;;;;;;9.38;7.82;;;;;;;9.26;100.00;94819.13;5033868;28;20028;-57
2021/08/26 00:38:31;;;;;;;9.07;7.22;;;;;;;9.25;100.00;94817.53;5032595;28;20033;-56
2021/08/26 00:41:00;;;;;;;7.70;6.85;;;;;;;9.26;100.00;94803.09;5031509;28;20480;-51
2021/08/26 00:43:30;;;;;;;8.95;7.60;;;;;;;9.43;100.00;94798.31;5032711;28;20030;-54
2021/08/26 00:45:59;;;;;;;11.57;7.90;;;;;;;9.49;100.00;94791.13;5032671;28;20028;-51
2021/08/26 00:48:28;;;;;;;9.57;7.90;;;;;;;9.47;100.00;94779.88;5031111;28;20037;-53
2021/08/26 00:50:55;;;;;;;8.88;7.50;;;;;;;9.42;100.00;94780.66;5031264;28;20029;-55
2021/08/26 00:53:24;;;;;;;10.00;8.18;;;;;;;9.41;100.00;94770.25;5030000;28;20053;-53
2021/08/26 00:55:50;;;;;;;10.13;7.00;;;;;;;9.40;100.00;94773.97;5031292;28;20029;-55
2021/08/26 00:58:19;;;;;;;8.43;7.30;;;;;;;9.32;100.00;94772.63;5031512;28;20370;-55
2021/08/26 01:00:50;;;;;;;8.85;7.70;;;;;;;9.24;100.00;94781.97;5031198;28;20116;-53
2021/08/26 01:03:27;;;;;;;8.48;7.30;;;;;;;9.19;100.00;94773.94;5031337;28;20384;-57
2021/08/26 01:05:59;;;;;;;10.40;7.57;;;;;;;9.22;100.00;94778.75;5031201;28;20025;-55
2021/08/26 01:08:33;;;;;;;8.43;6.93;;;;;;;9.22;100.00;94773.41;5030068;28;20040;-52
2021/08/26 01:11:03;;;;;;;8.70;7.25;;;;;;;9.19;100.00;94773.94;5051107;28;20017;-51
2021/08/26 01:13:39;;;;;;;11.63;7.13;;;;;;;9.17;100.00;94760.03;5037792;28;20026;-53
2021/08/26 01:16:10;;;;;;;11.93;8.13;;;;;;;9.22;100.00;94762.72;5031031;28;20029;-50
2021/08/26 01:18:41;;;;;;;10.00;7.90;;;;;;;9.23;100.00;94755.53;5031216;28;20034;-54
2021/08/26 01:21:25;;;;;;;9.90;7.60;;;;;;;9.21;100.00;94752.28;5029850;28;20013;-53
2021/08/26 01:24:00;;;;;;;11.85;8.00;;;;;;;9.18;100.00;94756.28;5031048;28;20033;-53
2021/08/26 01:26:49;;;;;;;10.20;7.53;;;;;;;9.13;100.00;94758.16;5030770;28;20017;-52
2021/08/26 01:29:15;;;;;;;9.73;7.80;;;;;;;9.14;100.00;94744.53;5040610;28;20032;-52
2021/08/26 01:31:50;;;;;;;11.40;7.88;;;;;;;9.26;100.00;94744.28;5032846;28;20408;-51
2021/08/26 01:34:18;;;;;;;11.02;7.45;;;;;;;9.27;100.00;94735.22;5030783;28;20032;-54
2021/08/26 01:36:45;;;;;;;11.93;7.50;;;;;;;9.25;100.00;94730.13;5044295;28;20021;-53
2021/08/26 01:39:15;;;;;;;9.23;7.45;;;;;;;9.23;100.00;94732.28;5030910;28;20083;-54
2021/08/26 01:41:52;;;;;;;9.73;6.90;;;;;;;9.20;100.00;94729.31;5029574;28;20087;-54
2021/08/26 01:44:30;;;;;;;8.38;7.30;;;;;;;9.13;100.00;94729.59;5030775;28;20030;-56
2021/08/26 01:46:57;;;;;;;9.15;8.02;;;;;;;9.14;100.00;94728.50;5030902;28;20499;-54
2021/08/26 01:49:24;;;;;;;11.50;7.40;;;;;;;9.15;100.00;94726.63;5030596;28;20033;-53
2021/08/26 01:51:50;;;;;;;9.30;7.90;;;;;;;9.11;100.00;94722.88;5030892;28;20477;-57
2021/08/26 01:54:20;;;;;;;11.48;7.07;;;;;;;9.06;100.00;94733.56;5031373;28;20046;-55
2021/08/26 01:56:46;;;;;;;8.95;7.60;;;;;;;9.05;100.00;94731.97;5029407;28;20516;-57
2021/08/26 01:59:13;;;;;;;9.23;7.15;;;;;;;8.99;100.00;94726.59;5030878;28;20064;-58
2021/08/26 02:01:39;;;;;;;10.40;7.45;;;;;;;8.98;100.00;94716.97;5030716;28;20029;-57
2021/08/26 02:04:07;;;;;;;9.30;7.65;;;;;;;9.00;100.00;94728.19;5029119;28;20083;-58
2021/08/26 02:06:33;;;;;;;9.63;7.80;;;;;;;9.00;100.00;94725.50;5013039;28;20374;-58
2021/08/26 02:08:58;;;;;;;8.70;7.05;;;;;;;8.96;100.00;94723.66;5029226;28;20029;-55
2021/08/26 02:11:26;;;;;;;11.23;7.50;;;;;;;8.90;100.00;94725.50;5030713;28;20021;-57
2021/08/26 02:13:51;;;;;;;9.35;7.60;;;;;;;8.86;100.00;94726.28;5031369;28;20045;-58
2021/08/26 02:16:17;;;;;;;8.50;6.93;;;;;;;8.84;100.00;94723.09;5034429;28;20392;-57
2021/08/26 02:18:44;;;;;;;9.57;7.18;;;;;;;8.81;100.00;94723.63;5034232;28;20486;-55
2021/08/26 02:21:17;;;;;;;7.82;6.80;;;;;;;8.78;100.00;94719.56;5033024;28;20087;-57
2021/08/26 02:23:47;;;;;;;10.60;6.95;;;;;;;8.80;100.00;94724.69;5036261;28;20028;-58
2021/08/26 02:26:16;;;;;;;7.95;6.95;;;;;;;8.77;100.00;94714.50;5052807;28;20476;-56
2021/08/26 02:28:44;;;;;;;7.38;6.13;;;;;;;8.77;100.00;94719.84;5041773;28;20117;-58
2021/08/26 02:31:10;;;;;;;11.80;6.68;;;;;;;8.74;100.00;94718.50;5053019;28;20498;-58
2021/08/26 02:33:35;;;;;;;10.30;7.38;;;;;;;8.79;100.00;94715.88;5034735;28;20030;-55
2021/08/26 02:36:01;;;;;;;11.52;7.10;;;;;;;8.84;100.00;94697.19;5040789;28;20032;-58
2021/08/26 02:38:28;;;;;;;11.73;7.18;;;;;;;8.86;100.00;94705.72;5035492;28;20476;-57
2021/08/26 02:40:54;;;;;;;7.18;6.32;;;;;;;8.86;100.00;94696.91;5034343;28;20033;-57
2021/08/26 02:43:19;;;;;;;8.77;7.03;;;;;;;8.79;100.00;94689.16;5033693;28;20037;-56
2021/08/26 02:45:44;;;;;;;8.75;7.38;;;;;;;8.77;100.00;94701.94;5033786;28;20056;-55
2021/08/26 02:48:12;;;;;;;9.57;6.80;;;;;;;8.71;100.00;94695.81;5033662;28;20060;-58
2021/08/26 02:50:43;;;;;;;7.15;6.45;;;;;;;8.70;100.00;94685.41;5033534;28;20025;-58
2021/08/26 02:53:09;;;;;;;7.45;6.13;;;;;;;8.69;100.00;94689.13;5032382;28;20112;-58
2021/08/26 02:55:34;;;;;;;10.23;7.22;;;;;;;8.67;100.00;94680.56;5032692;28;20032;-56
2021/08/26 02:58:02;;;;;;;8.38;6.90;;;;;;;8.62;100.00;94665.34;5033350;28;20052;-58
2021/08/26 03:00:27;;;;;;;8.35;6.93;;;;;;;8.70;100.00;94670.19;5033846;28;20037;-58
2021/08/26 03:02:53;;;;;;;8.30;7.28;;;;;;;8.74;100.00;94661.63;5032037;28;20032;-55
2021/08/26 03:05:18;;;;;;;8.15;7.22;;;;;;;8.72;100.00;94656.56;5033474;28;20028;-57
2021/08/26 03:07:44;;;;;;;10.73;7.15;;;;;;;8.68;100.00;94650.94;5033286;28;20025;-57
2021/08/26 03:10:09;;;;;;;9.43;7.72;;;;;;;8.65;100.00;94651.47;5033333;28;20064;-57
2021/08/26 03:12:37;;;;;;;13.70;7.07;;;;;;;8.62;100.00;94652.00;5032938;28;20025;-57
2021/08/26 03:15:03;;;;;;;8.98;7.20;;;;;;;8.61;100.00;94649.59;5033206;28;20030;-56
2021/08/26 03:17:28;;;;;;;10.48;7.20;;;;;;;8.57;100.00;94645.81;5033192;28;20136;-57
2021/08/26 03:19:56;;;;;;;9.05;7.40;;;;;;;8.51;100.00;94646.88;5044342;28;20033;-57
2021/08/26 03:22:21;;;;;;;8.43;6.50;;;;;;;8.48;100.00;94637.53;5029690;28;20026;-57
2021/08/26 03:24:47;;;;;;;8.18;6.82;;;;;;;8.45;100.00;94642.59;5032550;28;20389;-55
2021/08/26 03:27:15;;;;;;;8.80;7.13;;;;;;;8.40;100.00;94648.72;5032161;28;20036;-51
2021/08/26 03:29:41;;;;;;;7.75;6.75;;;;;;;8.38;100.00;94634.84;5046308;28;20365;-58
2021/08/26 03:32:07;;;;;;;12.45;6.47;;;;;;;8.35;100.00;94651.34;5032840;28;20389;-51
2021/08/26 03:34:32;;;;;;;9.15;6.63;;;;;;;8.41;100.00;94639.66;5031816;28;20037;-55
2021/08/26 03:36:58;;;;;;;8.43;6.97;;;;;;;8.44;100.00;94641.78;5043064;28;20021;-58
2021/08/26 03:39:23;;;;;;;10.05;6.68;;;;;;;8.40;100.00;94646.03;5045030;28;20029;-57
2021/08/26 03:41:49;;;;;;;8.40;6.78;;;;;;;8.41;100.00;94647.66;5052495;28;20025;-57
2021/08/26 03:44:14;;;;;;;13.63;7.13;;;;;;;8.47;100.00;94641.28;5052604;28;20033;-57
2021/08/26 03:46:42;;;;;;;8.60;6.68;;;;;;;8.46;100.00;94639.66;5052498;28;20029;-57
2021/08/26 03:49:07;;;;;;;12.98;6.65;;;;;;;8.42;100.00;94636.72;5052621;28;20035;-57
2021/08/26 03:51:33;;;;;;;9.07;6.97;;;;;;;8.40;100.00;94636.19;5051104;28;20494;-57
2021/08/26 03:54:04;;;;;;;7.57;6.60;;;;;;;8.35;100.00;94628.13;5052285;28;20385;-56
2021/08/26 03:56:29;;;;;;;7.00;6.13;;;;;;;8.35;100.00;94643.34;5052998;28;20512;-58
2021/08/26 03:58:58;;;;;;;7.07;6.07;;;;;;;8.35;100.00;94638.81;5052362;28;20123;-56
2021/08/26 04:01:23;;;;;;;8.23;6.28;;;;;;;8.34;100.00;94642.53;5043472;28;20035;-55
2021/08/26 04:03:49;;;;;;;6.60;5.80;;;;;;;8.38;100.00;94630.31;5031043;28;20025;-54
2021/08/26 04:06:14;;;;;;;6.93;5.82;;;;;;;8.39;100.00;94620.44;5032234;28;20381;-55
2021/08/26 04:08:40;;;;;;;6.45;5.63;;;;;;;8.38;100.00;94632.16;5030762;28;20024;-56
2021/08/26 04:11:06;;;;;;;8.05;6.20;;;;;;;8.37;100.00;94630.56;5032174;28;20034;-55
2021/08/26 04:13:31;;;;;;;7.28;6.18;;;;;;;8.35;100.00;94628.13;5032003;28;20052;-53
2021/08/26 04:15:57;;;;;;;7.97;6.20;;;;;;;8.32;100.00;94623.31;5032232;28;20025;-51
2021/08/26 04:18:22;;;;;;;7.78;6.45;;;;;;;8.36;100.00;94621.75;5030561;28;20443;-58
2021/08/26 04:20:50;;;;;;;9.23;6.50;;;;;;;8.40;100.00;94619.38;5031997;28;20025;-55
2021/08/26 04:23:16;;;;;;;8.15;5.78;;;;;;;8.36;100.00;94624.44;5030633;28;20036;-57
2021/08/26 04:25:42;;;;;;;9.10;6.25;;;;;;;8.33;100.00;94618.75;5031969;28;20041;-57
2021/08/26 04:28:07;;;;;;;7.63;5.82;;;;;;;8.31;100.00;94612.88;5032374;28;20025;-55
2021/08/26 04:30:33;;;;;;;9.80;6.32;;;;;;;8.28;100.00;94616.09;5051685;28;20028;-57
2021/08/26 04:33:00;;;;;;;7.32;6.00;;;;;;;8.26;100.00;94610.22;5050097;28;20029;-58
2021/08/26 04:35:27;;;;;;;6.57;5.78;;;;;;;8.29;100.00;94615.03;5051746;28;20108;-58
2021/08/26 04:37:53;;;;;;;7.10;5.97;;;;;;;8.34;100.00;94615.84;5033374;28;20025;-58
2021/08/26 04:40:19;;;;;;;6.75;5.95;;;;;;;8.36;100.00;94613.75;5050238;28;20047;-58
2021/08/26 04:42:49;;;;;;;9.13;5.75;;;;;;;8.36;100.00;94618.28;5051489;28;20017;-57
2021/08/26 04:45:17;;;;;;;7.70;5.30;;;;;;;8.31;100.00;94611.03;5050240;28;20512;-58
2021/08/26 04:47:42;;;;;;;8.32;6.03;;;;;;;8.24;100.00;94617.66;5048795;28;20495;-58
2021/08/26 04:50:08;;;;;;;5.95;5.03;;;;;;;8.17;100.00;94617.91;5031498;28;20021;-54
2021/08/26 04:52:34;;;;;;;7.50;5.53;;;;;;;8.07;100.00;94620.53;5029920;28;20030;-59
2021/08/26 04:57:30;;;;;;;6.85;5.78;;;;;;;7.97;100.00;94610.63;5048649;28;20056;-52
2021/08/26 04:59:55;;;;;;;7.15;5.30;;;;;;;7.95;100.00;94617.28;5032740;28;20040;-57
2021/08/26 05:02:21;;;;;;;7.45;5.72;;;;;;;7.97;100.00;94618.63;5045144;28;20020;-53
2021/08/26 05:04:49;;;;;;;6.75;5.43;;;;;;;8.08;100.00;94616.81;5051661;28;20082;-54
2021/08/26 05:07:15;;;;;;;7.88;5.78;;;;;;;8.23;100.00;94616.84;5051252;28;20024;-52
2021/08/26 05:09:48;;;;;;;9.48;6.40;;;;;;;8.35;100.00;94620.13;5051358;28;20017;-52
2021/08/26 05:12:16;;;;;;;11.30;6.30;;;;;;;8.48;100.00;94616.19;5051357;28;20017;-52
2021/08/26 05:14:41;;;;;;;17.33;7.43;;;;;;;8.59;100.00;94612.47;5051315;28;20449;-52
2021/08/26 05:17:06;;;;;;;12.88;6.60;;;;;;;8.73;100.00;94603.97;5049941;28;20025;-52
2021/08/26 05:19:32;;;;;;;7.82;6.13;;;;;;;8.86;100.00;94606.91;5051222;28;20020;-52
2021/08/26 05:21:58;;;;;;;19.08;5.97;;;;;;;8.98;100.00;94595.97;5051106;28;20067;-52
2021/08/26 05:24:23;;;;;;;12.90;5.88;;;;;;;9.12;100.00;94598.94;5051320;28;20037;-52
2021/08/26 05:26:52;;;;;;;41.08;6.60;;;;;;;9.22;100.00;94597.03;5050875;28;20044;-52
2021/08/26 05:29:17;;;;;;;13.88;6.35;;;;;;;9.34;100.00;94593.31;5051111;28;20743;-52
2021/08/26 05:31:43;;;;;;;8.32;6.32;;;;;;;9.40;100.00;94587.66;5033193;28;20021;-52
2021/08/26 05:34:11;;;;;;;8.38;6.88;;;;;;;9.49;100.00;94585.25;5050987;28;20505;-52
2021/08/26 05:36:37;;;;;;;9.75;7.28;;;;;;;9.58;100.00;94583.66;5050916;28;20079;-53
2021/08/26 05:39:03;;;;;;;11.55;7.82;;;;;;;9.71;100.00;94583.06;5039990;28;20434;-52
2021/08/26 05:41:28;;;;;;;9.93;8.10;;;;;;;9.82;100.00;94583.84;5050049;28;20048;-52
2021/08/26 05:43:54;;;;;;;10.77;8.18;;;;;;;9.90;100.00;94577.16;5049667;28;20033;-53
2021/08/26 05:46:19;;;;;;;9.38;6.95;;;;;;;9.98;100.00;94576.56;5050771;28;20029;-54
2021/08/26 05:48:48;;;;;;;10.68;8.13;;;;;;;10.08;100.00;94587.22;5051889;28;20029;-52
2021/08/26 05:51:13;;;;;;;10.65;8.13;;;;;;;10.15;100.00;94582.41;5053890;28;20028;-52
2021/08/26 05:53:39;;;;;;;13.45;9.45;;;;;;;10.22;100.00;94576.78;5070475;28;20037;-54
2021/08/26 05:56:04;;;;;;;22.30;9.25;;;;;;;10.32;100.00;94579.44;5054717;28;20517;-55
2021/08/26 05:58:32;;;;;;;41.67;11.73;;;;;;;10.45;100.00;94576.94;5053630;28;20079;-52
2021/08/26 06:01:00;;;;;;;43.15;11.68;;;;;;;10.59;100.00;94573.66;5054857;28;20031;-54
2021/08/26 06:03:25;;;;;;;27.02;10.75;;;;;;;10.72;100.00;94573.81;5054713;28;20104;-54
2021/08/26 06:05:53;;;;;;;15.63;10.63;;;;;;;10.86;100.00;94567.84;5054774;28;20025;-53
2021/08/26 06:08:18;;;;;;;45.75;10.40;;;;;;;10.96;100.00;94557.88;5053373;28;20021;-53
2021/08/26 06:10:46;;;;;;;33.92;10.63;;;;;;;11.01;100.00;94557.81;5054489;28;20468;-52
2021/08/26 06:13:11;;;;;;;63.53;12.07;;;;;;;11.09;100.00;94555.63;5053426;28;20040;-53
2021/08/26 06:15:37;;;;;;;17.52;10.32;;;;;;;11.16;100.00;94554.19;5054154;28;20479;-52
2021/08/26 06:18:02;;;;;;;22.05;11.45;;;;;;;11.27;100.00;94547.66;5054101;28;20494;-54
2021/08/26 06:20:30;;;;;;;34.67;12.82;;;;;;;11.33;100.00;94538.50;5052939;28;20032;-52
2021/08/26 06:22:58;;;;;;;39.63;12.13;;;;;;;11.41;100.00;94542.47;5053084;28;20024;-53
2021/08/26 06:25:28;;;;;;;38.28;12.52;;;;;;;11.49;100.00;94535.66;5054030;28;20032;-52
2021/08/26 06:28:00;;;;;;;33.38;12.45;;;;;;;11.57;100.00;94538.53;5054137;28;20078;-53
2021/08/26 06:30:26;;;;;;;41.13;12.13;;;;;;;11.58;100.00;94545.50;4990648;28;20068;-53
2021/08/26 06:32:52;;;;;;;30.13;12.68;;;;;;;11.58;100.00;94553.56;5054155;28;20375;-52
2021/08/26 06:35:17;;;;;;;36.28;12.50;;;;;;;11.54;100.00;94552.53;5069435;28;20037;-56
2021/08/26 06:37:42;;;;;;;52.55;13.45;;;;;;;11.58;100.00;94556.22;5053997;28;20032;-57
2021/08/26 06:40:08;;;;;;;28.27;13.90;;;;;;;11.66;100.00;94551.34;5054068;28;20399;-55
2021/08/26 06:42:34;;;;;;;25.58;14.20;;;;;;;11.78;100.00;94549.06;5054196;28;20676;-57
2021/08/26 06:45:00;;;;;;;25.45;16.10;;;;;;;11.85;100.00;94550.34;5053804;28;20025;-58
2021/08/26 06:47:30;;;;;;;33.63;17.67;;;;;;;11.92;100.00;94544.63;5053957;28;20376;-56
2021/08/26 06:49:55;;;;;;;28.10;19.00;;;;;;;12.06;100.00;94534.03;5054083;28;20566;-56
2021/08/26 06:52:26;;;;;;;40.08;19.88;;;;;;;12.14;100.00;94523.41;5053850;28;20040;-56
2021/08/26 06:54:51;;;;;;;30.50;17.98;;;;;;;12.17;100.00;94511.34;5053862;28;20033;-55
2021/08/26 06:57:19;;;;;;;30.83;19.45;;;;;;;12.19;100.00;94509.16;5069320;28;20427;-56
2021/08/26 06:59:47;;;;;;;27.63;18.65;;;;;;;12.24;100.00;94509.06;5068786;28;20382;-56
2021/08/26 07:02:13;;;;;;;29.55;19.33;;;;;;;12.28;100.00;94509.31;5053437;28;20021;-56
2021/08/26 07:04:38;;;;;;;31.27;20.60;;;;;;;12.23;100.00;94506.69;5053453;28;20029;-57
2021/08/26 07:07:03;;;;;;;33.70;21.65;;;;;;;12.14;100.00;94510.00;5053320;28;20036;-57
2021/08/26 07:09:29;;;;;;;33.88;21.70;;;;;;;12.18;100.00;94508.34;5053302;28;20021;-55
2021/08/26 07:11:54;;;;;;;35.90;22.55;;;;;;;12.28;100.00;94502.06;5053356;28;20036;-58
2021/08/26 07:14:20;;;;;;;32.67;21.23;;;;;;;12.42;100.00;94486.00;5035341;28;20033;-57
2021/08/26 07:16:45;;;;;;;38.97;22.30;;;;;;;12.50;100.00;94488.06;5053166;28;20060;-56
2021/08/26 07:19:15;;;;;;;34.33;23.38;;;;;;;12.58;100.00;94486.56;5053280;28;20411;-58
2021/08/26 07:21:41;;;;;;;41.03;25.52;;;;;;;12.65;100.00;94487.81;5052873;28;20025;-57
2021/08/26 07:24:07;;;;;;;37.85;24.98;;;;;;;12.71;100.00;94483.19;5053223;28;20492;-57
2021/08/26 07:26:32;;;;;;;42.88;25.98;;;;;;;12.93;100.00;94464.53;5052860;28;20150;-57
2021/08/26 07:29:07;;;;;;;38.17;26.58;;;;;;;13.01;100.00;94461.16;5052977;28;20396;-57
2021/08/26 07:31:35;;;;;;;40.05;25.65;;;;;;;13.22;100.00;94461.63;5035113;28;20368;-54
2021/08/26 07:34:00;;;;;;;41.60;28.02;;;;;;;13.56;100.00;94453.19;5068538;28;20029;-58
2021/08/26 07:36:26;;;;;;;39.17;26.35;;;;;;;13.93;100.00;94444.13;5052828;28;20484;-58
2021/08/26 07:38:51;;;;;;;33.33;23.92;;;;;;;14.09;100.00;94444.59;5052942;28;20024;-56
2021/08/26 07:41:17;;;;;;;29.88;20.55;;;;;;;14.19;100.00;94444.38;5052568;28;20025;-57
2021/08/26 07:43:42;;;;;;;26.60;19.48;;;;;;;14.55;100.00;94442.81;5052711;28;20025;-56
2021/08/26 07:46:08;;;;;;;26.33;18.15;;;;;;;14.83;100.00;94427.31;5052633;28;20074;-57
2021/08/26 07:48:38;;;;;;;25.92;18.63;;;;;;;15.23;100.00;94420.09;5052568;28;20021;-57
2021/08/26 07:51:06;;;;;;;24.70;17.17;;;;;;;15.60;100.00;94414.25;5063390;28;20456;-54
2021/08/26 07:53:32;;;;;;;22.38;15.43;;;;;;;15.98;100.00;94402.94;5030870;28;20041;-54
2021/08/26 07:55:59;;;;;;;20.88;14.40;;;;;;;16.38;100.00;94386.59;5049560;28;20048;-57
2021/08/26 07:58:24;;;;;;;18.95;13.77;;;;;;;16.86;100.00;94362.09;5050735;28;20075;-58
2021/08/26 08:00:50;;;;;;;17.25;12.90;;;;;;;17.18;100.00;94349.13;5036490;28;20025;-58
2021/08/26 08:03:15;;;;;;;19.48;13.38;;;;;;;17.64;100.00;94334.72;5049963;28;20025;-59
2021/08/26 08:05:41;;;;;;;31.75;13.70;;;;;;;17.91;100.00;94323.44;5049019;28;20036;-56
2021/08/26 08:08:09;;;;;;;17.58;13.27;;;;;;;18.29;100.00;94308.16;5049690;28;20044;-58
2021/08/26 08:10:37;;;;;;;22.27;12.90;;;;;;;18.40;100.00;94291.16;5050342;28;20392;-59
2021/08/26 08:13:04;;;;;;;18.85;12.65;;;;;;;18.59;100.00;94258.13;5049398;28;20025;-58
2021/08/26 08:15:30;;;;;;;17.33;12.50;;;;;;;18.68;100.00;94220.09;5036368;28;20029;-57
2021/08/26 08:17:55;;;;;;;17.05;12.43;;;;;;;18.82;100.00;94191.50;5050828;28;20519;-55
2021/08/26 08:20:21;;;;;;;17.52;12.40;;;;;;;19.10;100.00;94159.06;5032364;28;20028;-57
2021/08/26 08:22:48;;;;;;;14.43;11.88;;;;;;;19.35;100.00;94159.00;5050500;28;20028;-59
2021/08/26 08:25:16;;;;;;;16.27;11.90;;;;;;;19.52;100.00;94201.41;5050655;28;20016;-55
2021/08/26 08:27:41;;;;;;;16.17;12.15;;;;;;;19.75;100.00;94243.25;5050638;28;20053;-55
2021/08/26 08:30:08;;;;;;;16.27;10.90;;;;;;;19.40;100.00;94283.69;5050102;28;20437;-58
2021/08/26 08:32:33;;;;;;;12.43;10.20;;;;;;;19.72;100.00;94282.00;5049470;28;20032;-58
2021/08/26 08:34:59;;;;;;;13.50;10.25;;;;;;;19.78;100.00;94337.69;5050567;28;20196;-59
2021/08/26 08:37:27;;;;;;;10.75;9.50;;;;;;;19.97;100.00;94375.16;5050417;28;20098;-58
2021/08/26 08:39:52;;;;;;;12.20;9.45;;;;;;;19.85;100.00;94413.19;5047583;28;20104;-56
2021/08/26 08:42:31;;;;;;;11.20;8.98;;;;;;;19.92;100.00;94446.84;5024137;28;20348;-56
2021/08/26 08:45:00;;;;;;;11.75;8.82;;;;;;;19.92;100.00;94446.06;5049432;28;20107;-59
2021/08/26 08:47:29;;;;;;;12.70;9.20;;;;;;;20.18;100.00;94467.47;5050411;28;20025;-59
2021/08/26 08:49:55;;;;;;;10.90;9.25;;;;;;;20.34;100.00;94508.38;5049923;28;20068;-59
2021/08/26 08:52:20;;;;;;;10.90;8.45;;;;;;;20.46;100.00;94560.88;5048774;28;20021;-59
2021/08/26 08:54:46;;;;;;;12.60;9.68;;;;;;;20.63;100.00;94621.66;5032549;28;20040;-59
2021/08/26 08:57:15;;;;;;;12.23;8.93;;;;;;;20.36;100.00;94615.69;5049814;28;20064;-59
2021/08/26 08:59:43;;;;;;;9.75;7.88;;;;;;;20.51;100.00;94649.63;5048793;28;20068;-59
2021/08/26 09:02:08;;;;;;;9.38;8.38;;;;;;;20.42;100.00;94697.91;5049650;28;20480;-55
2021/08/26 09:04:36;;;;;;;8.73;6.97;;;;;;;20.37;100.00;94744.34;5034698;28;20078;-57
2021/08/26 09:07:01;;;;;;;7.35;6.53;;;;;;;20.28;100.00;94812.41;5049973;28;20055;-58
2021/08/26 09:09:27;;;;;;;8.05;6.63;;;;;;;20.15;100.00;94836.03;5029872;28;20064;-58
2021/08/26 09:11:57;;;;;;;7.47;6.40;;;;;;;20.04;100.00;94815.78;5029776;28;20017;-57
2021/08/26 09:14:27;;;;;;;10.07;6.00;;;;;;;20.16;100.00;94869.44;5031006;28;20056;-58
2021/08/26 09:16:57;;;;;;;7.55;6.78;;;;;;;20.17;100.00;94892.78;5030983;28;20450;-57
2021/08/26 09:19:33;;;;;;;8.02;6.40;;;;;;;20.44;100.00;94870.56;5030978;28;20083;-58
2021/08/26 09:22:05;;;;;;;9.45;6.68;;;;;;;20.52;100.00;94926.84;5030894;28;20060;-57
2021/08/26 09:24:45;;;;;;;9.70;7.15;;;;;;;20.90;100.00;94938.69;5031187;28;20492;-57
2021/08/26 09:27:11;;;;;;;9.77;6.72;;;;;;;21.04;100.00;94959.06;5029597;28;20484;-55
2021/08/26 09:30:22;;;;;;;8.32;6.45;;;;;;;21.57;100.00;94964.84;5043735;28;20036;-58
2021/08/26 09:32:56;;;;;;;9.38;6.53;;;;;;;21.85;100.00;95001.25;5049704;28;20036;-58
2021/08/26 09:35:29;;;;;;;7.50;6.60;;;;;;;21.67;100.00;95033.34;5050735;28;20035;-58
2021/08/26 09:38:00;;;;;;;7.82;5.82;;;;;;;21.66;100.00;95017.31;5050789;28;20106;-55
2021/08/26 09:40:31;;;;;;;6.68;5.93;;;;;;;21.88;100.00;95011.47;5050875;28;20028;-54
2021/08/26 09:42:59;;;;;;;8.35;6.18;;;;;;;21.94;100.00;95033.88;5032782;28;20111;-53
2021/08/26 09:45:33;;;;;;;8.18;6.10;;;;;;;22.50;100.00;95056.81;5050599;28;20383;-56
2021/08/26 09:48:14;;;;;;;7.50;6.03;;;;;;;22.65;100.00;95076.38;5046566;28;20036;-57
2021/08/26 09:50:54;;;;;;;7.15;6.32;;;;;;;22.46;100.00;95074.19;5049359;28;20083;-54
2021/08/26 09:53:37;;;;;;;9.68;6.20;;;;;;;22.51;100.00;95055.69;5050731;28;20025;-52
2021/08/26 09:56:05;;;;;;;8.02;5.82;;;;;;;23.01;100.00;95051.81;5050372;28;20049;-58
2021/08/26 09:58:35;;;;;;;7.93;5.97;;;;;;;23.51;100.00;95082.50;5049412;28;20020;-53
2021/08/26 10:01:19;;;;;;;6.63;5.97;;;;;;;23.51;100.00;95091.50;5050377;28;20032;-54
2021/08/26 10:03:50;;;;;;;8.40;5.20;;;;;;;23.16;100.00;95099.47;5050536;28;20104;-57
2021/08/26 10:06:18;;;;;;;5.50;4.75;;;;;;;23.08;100.00;95103.91;5049192;28;20032;-56
2021/08/26 10:08:46;;;;;;;6.15;4.97;;;;;;;23.06;100.00;95075.34;5050446;28;20074;-57
2021/08/26 10:11:21;;;;;;;8.65;4.80;;;;;;;23.07;100.00;95083.19;5051066;28;20090;-58
2021/08/26 10:13:48;;;;;;;5.85;5.03;;;;;;;23.03;100.00;95060.44;5051961;28;20093;-57
2021/08/26 10:16:18;;;;;;;8.60;6.60;;;;;;;22.77;100.00;95066.22;5051770;28;20029;-53
2021/08/26 10:18:46;;;;;;;7.25;6.03;;;;;;;22.73;100.00;95067.28;5050322;28;20037;-54
2021/08/26 10:21:12;;;;;;;6.82;5.45;;;;;;;22.38;100.00;95058.75;5051293;28;20025;-57
2021/08/26 10:23:42;;;;;;;6.80;5.13;;;;;;;21.93;100.00;95032.28;5050371;28;20025;-56
2021/08/26 10:26:15;;;;;;;6.70;5.45;;;;;;;21.90;100.00;94997.50;5050032;28;20025;-58
2021/08/26 10:28:44;;;;;;;6.43;5.20;;;;;;;22.03;100.00;94979.22;5050278;28;20029;-53
2021/08/26 10:31:29;;;;;;;7.70;5.65;;;;;;;22.14;100.00;94983.94;5050101;28;20029;-54
2021/08/26 10:34:06;;;;;;;10.38;6.18;;;;;;;22.03;100.00;94996.38;5050190;28;20021;-57
2021/08/26 10:36:42;;;;;;;7.82;6.03;;;;;;;21.94;100.00;94985.59;5035510;28;20400;-56
2021/08/26 10:39:32;;;;;;;8.27;5.53;;;;;;;22.13;100.00;94976.06;5053911;28;20424;-54
2021/08/26 10:42:22;;;;;;;6.40;5.40;;;;;;;22.37;100.00;95002.59;5054019;28;20063;-53
2021/08/26 10:45:09;;;;;;;5.93;5.32;;;;;;;22.51;100.00;95003.03;5053303;28;20075;-54
2021/08/26 10:47:50;;;;;;;7.40;5.65;;;;;;;22.47;100.00;95007.59;5053326;28;20048;-57
2021/08/26 10:50:21;;;;;;;6.88;5.05;;;;;;;22.63;100.00;95003.00;5052437;28;20021;-58
2021/08/26 10:52:57;;;;;;;8.18;5.07;;;;;;;22.45;100.00;95024.28;5052513;28;20029;-58
2021/08/26 10:55:46;;;;;;;8.45;5.28;;;;;;;22.25;100.00;95028.72;5048757;23;20009;-57
2021/08/26 10:58:24;;;;;;;6.60;4.78;;;;;;;21.99;100.00;95034.44;5040611;28;20529;-58
2021/08/26 11:01:09;;;;;;;7.95;5.28;;;;;;;22.08;100.00;95025.41;5052033;28;20124;-54
2021/08/26 11:03:49;;;;;;;5.28;4.75;;;;;;;22.77;100.00;95021.75;5053551;28;20078;-50
2021/08/26 11:06:17;;;;;;;5.80;4.63;;;;;;;23.67;100.00;95040.44;5053444;28;20031;-53
2021/08/26 11:08:53;;;;;;;7.50;4.95;;;;;;;24.43;100.00;95093.28;5053275;28;20029;-54
2021/08/26 11:11:25;;;;;;;5.72;4.95;;;;;;;24.35;100.00;95126.31;5053321;28;20052;-54
2021/08/26 11:13:51;;;;;;;7.30;4.43;;;;;;;24.45;100.00;95117.56;5052051;28;20028;-54
2021/08/26 11:16:25;;;;;;;5.28;4.72;;;;;;;24.39;100.00;95138.94;5051995;28;20032;-56
2021/08/26 11:18:54;;;;;;;6.70;5.03;;;;;;;23.81;100.00;95104.88;5052106;28;20028;-59
2021/08/26 11:21:44;;;;;;;7.90;5.15;;;;;;;23.28;100.00;95085.78;5053246;28;20029;-54
2021/08/26 11:24:12;;;;;;;6.60;5.38;;;;;;;23.09;100.00;95083.63;5053144;28;20115;-56
2021/08/26 11:26:51;;;;;;;5.75;4.68;;;;;;;23.30;100.00;95079.94;5053023;28;20483;-53
2021/08/26 11:29:20;;;;;;;6.22;4.40;;;;;;;23.63;100.00;95086.03;5044992;28;20517;-56
2021/08/26 11:31:54;;;;;;;7.07;5.70;;;;;;;23.89;100.00;95103.94;5052757;28;20052;-55
2021/08/26 11:34:39;;;;;;;6.28;5.10;;;;;;;23.85;100.00;95103.03;5053041;28;20451;-55
2021/08/26 11:37:21;;;;;;;6.03;5.25;;;;;;;23.94;100.00;95095.47;5052489;28;20035;-58
2021/08/26 11:40:01;;;;;;;6.22;4.45;;;;;;;23.51;100.00;95090.72;5034236;28;20230;-57